map of KOJ home
KOJ - Airport
Location
City:  Kagoshima, Kagoshima, Japan
Near (Alt.):Kirishima
Name:Kagoshima Airport
ICAO:RJFK
IATA:KOJ

Details
Type:Airport (Aerodrome, Airfield)
Use:Public/Civil, International (customs port of entry)
Latitude:3148'12"N (31.803397)
Longitude:13043'10"E (130.719408)
Datum:WGS 1984
Elevation:906 ft (276 m)
Variation:7.00W (WMM2015 magnetic declination)
-0.08 annual change
Runways:1
Longest:9840 × 150 ft (2999 × 45.5 m), paved

Time
Time Zone:UTC+9
Local Time:

Weather
METAR:RJFK 210900Z 30011KT 9999 FEW020 SCT/// 06/M01 Q1018
TAF:RJFK 210506Z 2106/2212 31006KT 9999 FEW040

Related Locations
Nearby:
Farthest:SSMT: 12334 mi / 19849 km
Mostardas, RS, BR

Find:

   beyond  
but within

Other Information
Maps:
NOTAMs:
Links:
Sources:

  
  • flag of Japan
  • flag of Kagoshima
  • flag of Kagoshima
  

Sectional Chart

Flight Planning
at skyvector.com

Satellite Image

Google Maps Satellite view

 

Copyright © 2004-2019 Karl L. Swartz. All rights reserved.
The Great Circle Mapper name and logo are trademarks of the Great Circle Mapper.
All other trademarks mentioned herein belong to their respective owners.
Please see credits for attibutions and further copyright information.

  Follow gcmap on Facebook Follow gcmap on Twitter Follow gcmap on Google+ GCmap on LinkedIn

hCard Microformat

Geo Microformat